createdAt,value
2017-08-27T00:01:55.300Z,24.40
2017-08-27T00:04:23.374Z,22.47
2017-08-27T00:06:51.444Z,23.00
2017-08-27T00:09:19.511Z,23.80
2017-08-27T00:11:47.644Z,23.23
2017-08-27T00:14:15.751Z,24.07
2017-08-27T00:16:43.796Z,22.50
2017-08-27T00:19:11.898Z,23.47
2017-08-27T00:21:39.964Z,24.10
2017-08-27T00:24:08.055Z,23.80
2017-08-27T00:26:36.149Z,26.03
2017-08-27T00:29:04.208Z,25.37
2017-08-27T00:31:32.254Z,25.50
2017-08-27T00:34:00.352Z,25.87
2017-08-27T00:36:28.431Z,26.17
2017-08-27T00:38:57.258Z,24.40
2017-08-27T00:41:25.351Z,25.13
2017-08-27T00:43:53.432Z,26.33
2017-08-27T00:46:21.549Z,24.07
2017-08-27T00:48:49.611Z,26.07
2017-08-27T00:51:17.660Z,26.33
2017-08-27T00:53:45.730Z,23.27
2017-08-27T00:56:13.788Z,24.17
2017-08-27T00:58:41.902Z,23.80
2017-08-27T01:01:09.963Z,24.47
2017-08-27T01:03:38.035Z,22.80
2017-08-27T01:06:06.113Z,27.50
2017-08-27T01:08:34.170Z,24.17
2017-08-27T01:11:02.242Z,26.27
2017-08-27T01:13:30.308Z,25.67
2017-08-27T01:15:58.383Z,25.70
2017-08-27T01:18:26.451Z,25.70
2017-08-27T01:20:54.511Z,24.40
2017-08-27T01:23:22.578Z,25.03
2017-08-27T01:25:50.650Z,24.33
2017-08-27T01:28:18.839Z,24.70
2017-08-27T01:30:46.911Z,25.90
2017-08-27T01:33:15.015Z,24.80
2017-08-27T01:35:43.063Z,26.37
2017-08-27T01:38:11.139Z,25.50
2017-08-27T01:40:39.211Z,26.77
2017-08-27T01:43:07.279Z,24.83
2017-08-27T01:45:35.352Z,24.13
2017-08-27T01:48:03.414Z,27.10
2017-08-27T01:50:31.483Z,25.07
2017-08-27T01:52:59.543Z,25.53
2017-08-27T01:55:28.419Z,24.73
2017-08-27T01:57:57.252Z,26.30
2017-08-27T02:00:25.317Z,25.27
2017-08-27T02:02:53.391Z,25.47
2017-08-27T02:05:21.481Z,25.10
2017-08-27T02:07:49.564Z,25.80
2017-08-27T02:10:17.633Z,27.97
2017-08-27T02:12:45.695Z,26.27
2017-08-27T02:15:13.812Z,24.63
2017-08-27T02:17:42.632Z,26.07
2017-08-27T02:20:10.702Z,25.00
2017-08-27T02:22:38.771Z,24.70
2017-08-27T02:25:06.849Z,25.93
2017-08-27T02:27:34.915Z,26.07
2017-08-27T02:30:02.979Z,26.97
2017-08-27T02:32:31.405Z,27.70
2017-08-27T02:34:59.463Z,27.00
2017-08-27T02:37:27.516Z,25.70
2017-08-27T02:39:55.584Z,27.37
2017-08-27T02:42:23.644Z,27.97
2017-08-27T02:44:51.723Z,26.90
2017-08-27T02:47:19.814Z,27.77
2017-08-27T02:49:47.914Z,28.10
2017-08-27T02:52:15.964Z,29.73
2017-08-27T02:54:44.047Z,32.30
2017-08-27T02:57:12.202Z,30.67
2017-08-27T02:59:40.284Z,29.30
2017-08-27T03:02:08.357Z,30.77
2017-08-27T03:04:36.459Z,29.30
2017-08-27T03:07:04.510Z,32.23
2017-08-27T03:09:32.595Z,31.57
2017-08-27T03:12:01.434Z,34.30
2017-08-27T03:14:29.527Z,34.93
2017-08-27T03:16:57.626Z,35.17
2017-08-27T03:19:26.460Z,36.60
2017-08-27T03:21:54.531Z,35.50
2017-08-27T03:24:22.628Z,37.17
2017-08-27T03:26:50.696Z,37.67
2017-08-27T03:29:18.775Z,35.73
2017-08-27T03:31:46.843Z,34.77
2017-08-27T03:34:14.913Z,34.60
2017-08-27T03:36:42.986Z,35.97
2017-08-27T03:39:11.068Z,32.93
2017-08-27T03:41:39.143Z,35.33
2017-08-27T03:44:07.222Z,33.43
2017-08-27T03:56:20.281Z,35.50
2017-08-27T03:58:48.380Z,39.13
2017-08-27T04:01:16.458Z,39.60
2017-08-27T04:03:44.515Z,39.27
2017-08-27T04:06:12.599Z,38.00
2017-08-27T04:08:40.664Z,38.40
2017-08-27T04:11:08.727Z,39.10
2017-08-27T04:13:36.798Z,38.17
2017-08-27T04:16:04.873Z,36.97
2017-08-27T04:18:33.052Z,37.67
2017-08-27T04:21:01.116Z,35.23
2017-08-27T04:23:29.186Z,36.70
2017-08-27T04:25:57.258Z,36.60
2017-08-27T04:28:25.335Z,38.57
2017-08-27T04:30:53.422Z,38.90
2017-08-27T04:33:21.471Z,36.57
2017-08-27T04:35:50.192Z,37.00
2017-08-27T04:38:18.270Z,37.37
2017-08-27T04:40:46.347Z,37.40
2017-08-27T04:43:14.415Z,37.93
2017-08-27T04:45:42.495Z,37.53
2017-08-27T04:48:10.575Z,38.47
2017-08-27T04:50:38.645Z,36.50
2017-08-27T04:53:06.720Z,38.47
2017-08-27T04:55:34.943Z,38.87
2017-08-27T04:58:02.985Z,37.90
2017-08-27T05:00:31.647Z,37.23
2017-08-27T05:02:59.714Z,37.47
2017-08-27T05:05:27.788Z,37.03
2017-08-27T05:07:55.904Z,40.23
2017-08-27T05:10:23.963Z,38.63
2017-08-27T05:12:52.055Z,39.37
2017-08-27T05:15:20.142Z,38.67
2017-08-27T05:17:48.206Z,36.73
2017-08-27T05:20:16.283Z,39.47
2017-08-27T05:22:44.346Z,39.30
2017-08-27T05:25:12.415Z,37.37
2017-08-27T05:27:40.485Z,40.87
2017-08-27T05:30:08.553Z,38.57
2017-08-27T05:32:36.632Z,41.53
2017-08-27T05:35:04.708Z,39.27
2017-08-27T05:37:32.771Z,38.63
2017-08-27T05:40:01.618Z,39.90
2017-08-27T05:42:29.695Z,42.87
2017-08-27T05:44:57.763Z,41.50
2017-08-27T05:47:25.843Z,42.40
2017-08-27T05:49:53.904Z,44.63
2017-08-27T05:52:21.979Z,42.07
2017-08-27T05:54:50.306Z,40.67
2017-08-27T05:57:18.375Z,44.27
2017-08-27T05:59:46.468Z,40.87
2017-08-27T06:02:14.527Z,42.00
2017-08-27T06:04:42.587Z,43.63
2017-08-27T06:07:10.803Z,43.10
2017-08-27T06:09:38.882Z,43.70
2017-08-27T06:12:06.956Z,47.40
2017-08-27T06:14:35.074Z,44.10
2017-08-27T06:17:03.148Z,43.63
2017-08-27T06:19:31.195Z,42.87
2017-08-27T06:21:59.270Z,43.07
2017-08-27T06:24:28.445Z,45.10
2017-08-27T06:26:56.502Z,47.10
2017-08-27T06:29:24.554Z,48.03
2017-08-27T06:31:52.627Z,47.83
2017-08-27T06:34:20.712Z,46.63
2017-08-27T06:36:48.766Z,45.10
2017-08-27T06:39:16.838Z,44.80
2017-08-27T06:41:44.915Z,41.13
2017-08-27T06:44:12.992Z,43.93
2017-08-27T06:46:41.063Z,41.13
2017-08-27T06:49:09.111Z,41.67
2017-08-27T06:51:37.183Z,45.20
2017-08-27T06:54:05.260Z,42.60
2017-08-27T06:56:33.339Z,41.23
2017-08-27T06:59:01.410Z,39.90
2017-08-27T07:01:29.496Z,43.13
2017-08-27T07:03:57.572Z,41.60
2017-08-27T07:06:25.661Z,39.50
2017-08-27T07:08:53.735Z,38.13
2017-08-27T07:11:21.825Z,38.00
2017-08-27T07:13:49.896Z,36.50
2017-08-27T07:16:17.951Z,35.57
2017-08-27T07:18:46.023Z,37.83
2017-08-27T07:21:14.120Z,37.50
2017-08-27T07:23:42.224Z,36.07
2017-08-27T07:26:10.537Z,38.53
2017-08-27T07:28:38.594Z,38.47
2017-08-27T07:31:06.675Z,39.60
2017-08-27T07:33:34.730Z,34.27
2017-08-27T07:36:02.935Z,32.23
2017-08-27T07:38:31.007Z,32.20
2017-08-27T07:40:59.085Z,31.60
2017-08-27T07:43:27.177Z,30.33
2017-08-27T07:45:55.285Z,29.13
2017-08-27T07:48:23.367Z,29.23
2017-08-27T07:50:51.434Z,26.73
2017-08-27T07:53:19.525Z,27.50
2017-08-27T07:55:47.653Z,26.73
2017-08-27T07:58:16.196Z,23.30
2017-08-27T08:00:44.327Z,26.30
2017-08-27T08:03:12.991Z,24.93
2017-08-27T08:05:41.055Z,25.07
2017-08-27T08:08:09.127Z,23.93
2017-08-27T08:10:37.219Z,23.40
2017-08-27T08:13:05.279Z,23.87
2017-08-27T08:15:33.404Z,24.20
2017-08-27T08:18:01.502Z,24.60
2017-08-27T08:20:29.563Z,24.13
2017-08-27T08:22:57.656Z,23.23
2017-08-27T08:25:25.712Z,25.13
2017-08-27T08:27:53.795Z,24.33
2017-08-27T08:30:23.945Z,20.40
2017-08-27T08:32:51.987Z,19.70
2017-08-27T08:35:20.051Z,14.60
2017-08-27T08:37:48.175Z,18.80
2017-08-27T08:40:16.242Z,19.17
2017-08-27T08:42:44.323Z,17.53
2017-08-27T08:45:13.139Z,14.43
2017-08-27T08:47:41.201Z,11.97
2017-08-27T08:50:09.277Z,13.03
2017-08-27T08:52:37.335Z,14.43
2017-08-27T08:55:05.423Z,18.70
2017-08-27T08:57:33.500Z,17.17
2017-08-27T09:00:01.564Z,18.13
2017-08-27T09:02:29.706Z,15.27
2017-08-27T09:04:57.759Z,13.70
2017-08-27T09:07:25.855Z,10.30
2017-08-27T09:09:53.914Z,9.77
2017-08-27T09:12:22.023Z,9.67
2017-08-27T09:14:50.088Z,9.83
2017-08-27T09:17:18.171Z,12.57
2017-08-27T09:19:46.269Z,12.27
2017-08-27T09:22:15.094Z,10.70
2017-08-27T09:24:43.163Z,9.33
2017-08-27T09:27:11.334Z,8.40
2017-08-27T09:29:39.403Z,9.70
2017-08-27T09:32:07.484Z,11.60
2017-08-27T09:34:35.586Z,10.50
2017-08-27T09:37:03.667Z,10.00
2017-08-27T09:39:31.778Z,10.83
2017-08-27T09:42:00.641Z,10.53
2017-08-27T09:44:28.707Z,10.10
2017-08-27T09:46:56.789Z,10.03
2017-08-27T09:49:24.868Z,12.30
2017-08-27T09:51:52.931Z,11.77
2017-08-27T09:54:21.003Z,13.50
2017-08-27T09:56:49.068Z,10.17
2017-08-27T09:59:17.152Z,6.77
2017-08-27T10:01:45.199Z,6.27
2017-08-27T10:04:13.818Z,7.60
2017-08-27T10:06:41.879Z,7.07
2017-08-27T10:09:09.951Z,6.33
2017-08-27T10:11:38.016Z,7.00
2017-08-27T10:14:06.097Z,6.87
2017-08-27T10:16:34.148Z,7.00
2017-08-27T10:19:03.058Z,4.37
2017-08-27T10:21:31.120Z,5.33
2017-08-27T10:23:59.211Z,4.43
2017-08-27T10:26:27.255Z,5.50
2017-08-27T10:28:55.341Z,4.60
2017-08-27T10:31:23.402Z,5.43
2017-08-27T10:33:51.484Z,5.23
2017-08-27T10:36:19.556Z,5.23
2017-08-27T10:38:47.667Z,5.53
2017-08-27T10:41:15.719Z,9.60
2017-08-27T10:43:43.773Z,8.27
2017-08-27T10:46:11.864Z,5.73
2017-08-27T10:48:39.924Z,6.33
2017-08-27T10:51:08.000Z,4.47
2017-08-27T10:53:36.072Z,3.90
2017-08-27T10:56:04.123Z,4.80
2017-08-27T10:58:32.245Z,5.30
2017-08-27T11:01:00.276Z,4.37
2017-08-27T11:03:28.382Z,4.53
2017-08-27T11:05:56.480Z,6.00
2017-08-27T11:08:24.546Z,4.87
2017-08-27T11:10:52.609Z,5.23
2017-08-27T11:13:20.679Z,6.57
2017-08-27T11:15:48.762Z,5.03
2017-08-27T11:18:16.820Z,6.23
2017-08-27T11:20:44.911Z,5.43
2017-08-27T11:23:12.987Z,5.43
2017-08-27T11:25:41.051Z,4.50
2017-08-27T11:28:09.112Z,6.20
2017-08-27T11:30:37.179Z,4.67
2017-08-27T11:33:05.251Z,4.57
2017-08-27T11:35:33.358Z,4.70
2017-08-27T11:38:01.431Z,5.60
2017-08-27T11:40:29.502Z,5.97
2017-08-27T11:42:57.568Z,6.13
2017-08-27T11:45:26.475Z,5.67
2017-08-27T11:47:54.550Z,4.83
2017-08-27T11:50:22.616Z,4.40
2017-08-27T11:52:50.728Z,4.90
2017-08-27T11:55:19.634Z,4.43
2017-08-27T11:57:47.711Z,4.93
2017-08-27T12:00:15.775Z,13.60
2017-08-27T12:02:43.863Z,8.10
2017-08-27T12:05:12.727Z,4.20
2017-08-27T12:07:41.115Z,3.30
2017-08-27T12:10:09.168Z,4.63
2017-08-27T12:12:37.231Z,3.53
2017-08-27T12:15:05.308Z,3.87
2017-08-27T12:17:33.370Z,3.73
2017-08-27T12:20:01.502Z,3.70
2017-08-27T12:22:29.543Z,3.70
2017-08-27T12:24:57.619Z,4.10
2017-08-27T12:27:26.490Z,3.77
2017-08-27T12:29:55.379Z,3.37
2017-08-27T12:32:23.555Z,6.07
2017-08-27T12:34:51.651Z,6.03
2017-08-27T12:37:19.703Z,4.53
2017-08-27T12:39:47.776Z,4.87
2017-08-27T12:42:15.832Z,3.37
2017-08-27T12:44:44.677Z,3.83
2017-08-27T12:47:13.020Z,4.07
2017-08-27T12:49:41.047Z,3.40
2017-08-27T12:52:09.122Z,3.43
2017-08-27T12:54:37.180Z,2.90
2017-08-27T12:57:05.274Z,3.43
2017-08-27T12:59:33.370Z,3.40
2017-08-27T13:02:01.455Z,4.03
2017-08-27T13:04:29.516Z,3.53
2017-08-27T13:06:57.568Z,7.73
2017-08-27T13:09:26.435Z,3.43
2017-08-27T13:11:54.491Z,4.10
2017-08-27T13:14:22.570Z,5.20
2017-08-27T13:16:50.635Z,3.30
2017-08-27T13:19:18.706Z,3.63
2017-08-27T13:21:46.782Z,4.33
2017-08-27T13:24:14.852Z,3.40
2017-08-27T13:26:42.914Z,3.87
2017-08-27T13:29:10.988Z,3.57
2017-08-27T13:31:39.045Z,4.13
2017-08-27T13:34:07.105Z,5.17
2017-08-27T13:36:35.167Z,3.30
2017-08-27T13:39:03.224Z,3.10
2017-08-27T13:41:31.311Z,2.70
2017-08-27T13:43:59.420Z,2.90
2017-08-27T13:46:27.464Z,2.93
2017-08-27T13:48:55.533Z,4.30
2017-08-27T13:51:23.591Z,5.10
2017-08-27T13:53:51.675Z,3.27
2017-08-27T13:56:20.507Z,3.30
2017-08-27T13:58:48.591Z,3.00
2017-08-27T14:01:16.670Z,3.60
2017-08-27T14:03:44.715Z,3.00
2017-08-27T14:06:12.798Z,2.70
2017-08-27T14:08:40.852Z,3.17
2017-08-27T14:11:08.931Z,3.40
2017-08-27T14:13:36.980Z,3.30
2017-08-27T14:16:05.094Z,3.20
2017-08-27T14:18:33.147Z,2.60
2017-08-27T14:21:01.219Z,3.37
2017-08-27T14:23:29.289Z,2.77
2017-08-27T14:25:57.432Z,3.13
2017-08-27T14:28:25.490Z,3.00
2017-08-27T14:30:53.575Z,3.00
2017-08-27T14:33:21.637Z,3.03
2017-08-27T14:35:49.714Z,3.00
2017-08-27T14:38:17.791Z,3.63
2017-08-27T14:40:45.879Z,3.07
2017-08-27T14:43:14.712Z,3.00
2017-08-27T14:45:42.778Z,3.00
2017-08-27T14:48:11.604Z,3.17
2017-08-27T14:50:39.671Z,3.13
2017-08-27T14:53:07.761Z,3.10
2017-08-27T14:55:35.838Z,3.40
2017-08-27T14:58:04.410Z,5.97
2017-08-27T15:00:32.480Z,2.77
2017-08-27T15:03:00.571Z,3.43
2017-08-27T15:05:29.397Z,3.50
2017-08-27T15:07:57.489Z,4.17
2017-08-27T15:10:25.547Z,3.07
2017-08-27T15:12:53.622Z,3.20
2017-08-27T15:15:21.708Z,3.33
2017-08-27T15:17:49.800Z,4.90
2017-08-27T15:20:17.868Z,3.10
2017-08-27T15:22:45.941Z,2.70
2017-08-27T15:25:14.007Z,3.53
2017-08-27T15:27:42.091Z,2.87
2017-08-27T15:30:10.159Z,2.83
2017-08-27T15:32:38.204Z,3.43
2017-08-27T15:35:06.304Z,3.50
2017-08-27T15:37:34.416Z,2.33
2017-08-27T15:40:02.494Z,3.07
2017-08-27T15:42:30.584Z,3.00
2017-08-27T15:44:58.652Z,2.80
2017-08-27T15:47:26.727Z,2.73
2017-08-27T15:49:54.840Z,3.13
2017-08-27T15:52:22.906Z,5.70
2017-08-27T15:54:50.979Z,3.73
2017-08-27T15:57:19.068Z,3.40
2017-08-27T15:59:47.128Z,2.77
2017-08-27T16:02:15.204Z,5.00
2017-08-27T16:04:43.259Z,3.57
2017-08-27T16:07:11.477Z,2.77
2017-08-27T16:09:39.533Z,5.53
2017-08-27T16:12:07.594Z,3.10
2017-08-27T16:14:36.388Z,2.60
2017-08-27T16:17:04.451Z,2.47
2017-08-27T16:19:32.537Z,5.20
2017-08-27T16:22:00.615Z,3.40
2017-08-27T16:24:28.681Z,2.50
2017-08-27T16:26:56.771Z,4.10
2017-08-27T16:29:24.826Z,2.60
2017-08-27T16:31:52.934Z,3.10
2017-08-27T16:34:21.004Z,4.00
2017-08-27T16:36:49.056Z,3.67
2017-08-27T16:39:17.191Z,3.63
2017-08-27T16:41:45.227Z,2.63
2017-08-27T16:44:14.105Z,3.30
2017-08-27T16:46:42.172Z,3.17
2017-08-27T16:49:10.240Z,2.87
2017-08-27T16:51:38.316Z,3.43
2017-08-27T16:54:06.400Z,7.43
2017-08-27T16:56:34.862Z,4.90
2017-08-27T16:59:02.891Z,3.63
2017-08-27T17:01:30.955Z,3.27
2017-08-27T17:03:59.055Z,3.47
2017-08-27T17:06:27.123Z,4.70
2017-08-27T17:08:55.167Z,2.70
2017-08-27T17:11:23.235Z,2.63
2017-08-27T17:13:51.364Z,3.07
2017-08-27T17:16:19.412Z,2.77
2017-08-27T17:18:48.327Z,2.50
2017-08-27T17:21:17.150Z,2.87
2017-08-27T17:23:45.208Z,2.93
2017-08-27T17:26:13.320Z,2.60
2017-08-27T17:28:41.382Z,3.07
2017-08-27T17:31:09.436Z,4.20
2017-08-27T17:33:37.566Z,2.67
2017-08-27T17:36:06.392Z,2.07
2017-08-27T17:38:34.455Z,2.43
2017-08-27T17:41:02.552Z,2.60
2017-08-27T17:43:30.642Z,5.43
2017-08-27T17:45:58.711Z,2.70
2017-08-27T17:48:26.840Z,3.13
2017-08-27T17:50:54.898Z,2.80
2017-08-27T18:03:07.966Z,5.00
2017-08-27T18:05:36.042Z,3.00
2017-08-27T18:08:05.240Z,2.90
2017-08-27T18:10:33.415Z,3.27
2017-08-27T18:13:01.460Z,3.83
2017-08-27T18:15:30.333Z,6.03
2017-08-27T18:17:58.407Z,3.47
2017-08-27T18:20:26.510Z,4.90
2017-08-27T18:22:54.650Z,3.20
2017-08-27T18:25:23.522Z,2.83
2017-08-27T18:27:51.572Z,3.47
2017-08-27T18:30:19.664Z,3.80
2017-08-27T18:32:48.662Z,3.30
2017-08-27T18:35:17.323Z,3.10
2017-08-27T18:37:45.406Z,4.10
2017-08-27T18:40:14.349Z,3.77
2017-08-27T18:42:42.436Z,2.80
2017-08-27T18:45:10.535Z,3.43
2017-08-27T18:47:38.616Z,4.57
2017-08-27T18:50:06.698Z,5.53
2017-08-27T18:52:34.814Z,21.13
2017-08-27T18:55:02.948Z,5.13
2017-08-27T18:57:31.032Z,3.27
2017-08-27T18:59:59.118Z,3.50
2017-08-27T19:02:28.991Z,3.70
2017-08-27T19:04:57.106Z,3.37
2017-08-27T19:07:25.183Z,3.33
2017-08-27T19:09:53.253Z,9.43
2017-08-27T19:12:22.117Z,3.33
2017-08-27T19:14:50.189Z,4.60
2017-08-27T19:17:18.277Z,5.27
2017-08-27T19:19:47.141Z,3.43
2017-08-27T19:22:15.223Z,3.90
2017-08-27T19:24:43.308Z,3.33
2017-08-27T19:27:11.461Z,3.73
2017-08-27T19:29:39.520Z,3.30
2017-08-27T19:32:07.587Z,3.40
2017-08-27T19:34:35.998Z,4.43
2017-08-27T19:37:04.050Z,4.07
2017-08-27T19:39:32.135Z,6.20
2017-08-27T19:42:00.250Z,4.80
2017-08-27T19:44:28.351Z,4.20
2017-08-27T19:46:56.422Z,3.50
2017-08-27T19:49:24.532Z,3.20
2017-08-27T19:51:53.403Z,5.20
2017-08-27T19:54:22.245Z,4.13
2017-08-27T19:56:50.346Z,5.03
2017-08-27T19:59:18.461Z,4.30
2017-08-27T20:01:46.493Z,3.17
2017-08-27T20:04:14.577Z,6.93
2017-08-27T20:06:42.642Z,4.07
2017-08-27T20:09:10.737Z,4.73
2017-08-27T20:11:38.783Z,5.60
2017-08-27T20:14:08.797Z,4.90
2017-08-27T20:16:36.859Z,5.53
2017-08-27T20:19:04.911Z,4.03
2017-08-27T20:21:33.035Z,3.67
2017-08-27T20:24:01.732Z,3.90
2017-08-27T20:26:30.539Z,4.50
2017-08-27T20:28:58.624Z,5.90
2017-08-27T20:31:26.710Z,3.63
2017-08-27T20:33:54.782Z,4.73
2017-08-27T20:36:22.853Z,5.47
2017-08-27T20:38:50.933Z,3.97
2017-08-27T20:41:18.994Z,3.37
2017-08-27T20:43:47.067Z,4.13
2017-08-27T20:46:15.151Z,4.10
2017-08-27T20:48:43.225Z,4.07
2017-08-27T20:51:11.289Z,5.00
2017-08-27T20:53:39.374Z,6.87
2017-08-27T20:56:07.487Z,4.30
2017-08-27T20:58:35.564Z,5.63
2017-08-27T21:01:03.655Z,4.47
2017-08-27T21:03:31.725Z,3.73
2017-08-27T21:05:59.799Z,4.40
2017-08-27T21:08:27.859Z,4.07
2017-08-27T21:10:55.912Z,4.67
2017-08-27T21:13:23.997Z,4.40
2017-08-27T21:15:52.104Z,4.37
2017-08-27T21:18:20.151Z,4.23
2017-08-27T21:20:48.234Z,6.37
2017-08-27T21:23:16.322Z,5.80
2017-08-27T21:25:44.383Z,3.87
2017-08-27T21:28:12.455Z,4.47
2017-08-27T21:30:40.542Z,4.17
2017-08-27T21:33:08.600Z,4.83
2017-08-27T21:35:36.677Z,5.23
2017-08-27T21:38:04.723Z,5.30
2017-08-27T21:40:32.791Z,5.90
2017-08-27T21:43:00.845Z,7.10
2017-08-27T21:45:28.902Z,9.07
2017-08-27T21:47:57.768Z,4.50
2017-08-27T21:50:25.827Z,4.20
2017-08-27T21:52:53.915Z,8.67
2017-08-27T21:55:21.990Z,4.80
2017-08-27T21:57:50.816Z,4.77
2017-08-27T22:00:24.712Z,4.77
2017-08-27T22:02:52.768Z,4.97
2017-08-27T22:05:21.590Z,4.23
2017-08-27T22:07:49.669Z,4.30
2017-08-27T22:10:18.324Z,8.23
2017-08-27T22:12:46.419Z,5.10
2017-08-27T22:15:14.486Z,4.67
2017-08-27T22:17:42.541Z,4.87
2017-08-27T22:20:10.619Z,5.80
2017-08-27T22:22:38.703Z,5.40
2017-08-27T22:25:06.751Z,4.60
2017-08-27T22:27:34.859Z,6.07
2017-08-27T22:30:02.908Z,6.20
2017-08-27T22:32:30.980Z,5.20
2017-08-27T22:34:59.974Z,5.83
2017-08-27T22:37:28.059Z,5.30
2017-08-27T22:39:56.147Z,5.17
2017-08-27T22:42:24.217Z,5.27
2017-08-27T22:44:52.287Z,5.47
2017-08-27T22:47:20.357Z,5.50
2017-08-27T22:49:48.444Z,5.20
2017-08-27T22:52:16.513Z,6.23
2017-08-27T22:54:44.574Z,4.60
2017-08-27T22:57:12.690Z,5.83
2017-08-27T22:59:40.747Z,6.17
2017-08-27T23:02:08.817Z,5.40
2017-08-27T23:04:36.892Z,5.60
2017-08-27T23:07:05.069Z,6.17
2017-08-27T23:09:33.262Z,5.97
2017-08-27T23:12:02.245Z,6.67
2017-08-27T23:14:30.289Z,7.37
2017-08-27T23:16:59.142Z,6.20
2017-08-27T23:19:27.976Z,6.10
2017-08-27T23:21:56.047Z,6.20
2017-08-27T23:24:24.116Z,6.10
2017-08-27T23:26:52.199Z,6.67
2017-08-27T23:29:20.246Z,5.67
2017-08-27T23:31:48.331Z,6.47
2017-08-27T23:34:16.407Z,6.20
2017-08-27T23:36:44.483Z,7.40
2017-08-27T23:39:12.554Z,6.70
2017-08-27T23:41:40.645Z,6.67
2017-08-27T23:44:08.693Z,6.83
2017-08-27T23:46:36.824Z,7.37
2017-08-27T23:49:04.872Z,6.83
2017-08-27T23:51:32.939Z,7.53
2017-08-27T23:54:01.009Z,7.30
2017-08-27T23:56:29.078Z,7.93
2017-08-27T23:58:57.153Z,7.70
